createdAt,value
2023-05-14T00:00:41.139Z,2.22
2023-05-14T00:03:09.505Z,2.42
2023-05-14T00:05:36.449Z,2.38
2023-05-14T00:08:03.400Z,2.78
2023-05-14T00:10:30.271Z,2.13
2023-05-14T00:12:57.117Z,2.53
2023-05-14T00:15:24.205Z,2.67
2023-05-14T00:17:51.114Z,2.63
2023-05-14T00:20:19.453Z,2.58
2023-05-14T00:22:46.293Z,2.50
2023-05-14T00:25:13.160Z,2.47
2023-05-14T00:27:40.032Z,2.42
2023-05-14T00:30:07.680Z,2.28
2023-05-14T00:32:34.658Z,2.05
2023-05-14T00:35:01.645Z,2.20
2023-05-14T00:37:29.874Z,2.25
2023-05-14T00:39:56.763Z,2.08
2023-05-14T00:42:23.653Z,1.80
2023-05-14T00:44:50.493Z,2.00
2023-05-14T00:47:17.351Z,2.05
2023-05-14T00:49:45.162Z,1.92
2023-05-14T00:52:12.948Z,2.03
2023-05-14T00:54:41.214Z,2.20
2023-05-14T00:57:08.157Z,2.20
2023-05-14T00:59:35.086Z,1.90
2023-05-14T01:02:02.029Z,1.85
2023-05-14T01:04:28.936Z,2.38
2023-05-14T01:07:02.382Z,2.20
2023-05-14T01:09:32.471Z,1.90
2023-05-14T01:12:03.358Z,1.98
2023-05-14T01:14:34.153Z,1.85
2023-05-14T01:17:01.008Z,2.00
2023-05-14T01:19:33.503Z,1.75
2023-05-14T01:22:01.778Z,1.83
2023-05-14T01:24:28.706Z,1.83
2023-05-14T01:26:56.248Z,1.73
2023-05-14T01:29:23.400Z,1.90
2023-05-14T01:31:50.864Z,1.88
2023-05-14T01:34:19.336Z,1.95
2023-05-14T01:36:46.211Z,1.85
2023-05-14T01:39:14.745Z,1.67
2023-05-14T01:41:41.932Z,1.80
2023-05-14T01:44:09.079Z,1.42
2023-05-14T01:46:36.007Z,1.70
2023-05-14T01:49:02.969Z,1.70
2023-05-14T01:51:29.829Z,1.80
2023-05-14T01:53:56.697Z,1.58
2023-05-14T01:56:24.914Z,1.60
2023-05-14T01:58:51.769Z,1.70
2023-05-14T02:01:18.723Z,1.75
2023-05-14T02:03:45.743Z,2.13
2023-05-14T02:06:12.723Z,1.95
2023-05-14T02:08:39.631Z,2.08
2023-05-14T02:11:06.495Z,1.70
2023-05-14T02:13:34.812Z,1.95
2023-05-14T02:16:01.778Z,1.63
2023-05-14T02:18:28.782Z,1.73
2023-05-14T02:20:55.629Z,1.63
2023-05-14T02:23:34.013Z,2.00
2023-05-14T02:26:01.336Z,1.67
2023-05-14T02:28:28.201Z,1.65
2023-05-14T02:30:59.994Z,1.80
2023-05-14T02:33:26.970Z,2.00
2023-05-14T02:35:53.902Z,1.90
2023-05-14T02:38:20.806Z,1.70
2023-05-14T02:40:47.672Z,1.85
2023-05-14T02:43:14.549Z,1.80
2023-05-14T02:45:41.394Z,1.60
2023-05-14T02:48:09.764Z,1.73
2023-05-14T02:50:36.765Z,1.77
2023-05-14T02:53:03.783Z,1.65
2023-05-14T02:55:30.687Z,1.77
2023-05-14T02:57:57.616Z,1.80
2023-05-14T03:00:24.747Z,1.83
2023-05-14T03:02:52.185Z,1.73
2023-05-14T03:05:21.131Z,1.55
2023-05-14T03:07:47.973Z,1.90
2023-05-14T03:10:15.003Z,1.90
2023-05-14T03:12:41.994Z,1.58
2023-05-14T03:15:10.004Z,1.80
2023-05-14T03:17:36.980Z,2.13
2023-05-14T03:20:04.245Z,1.52
2023-05-14T03:22:32.520Z,1.92
2023-05-14T03:24:59.472Z,1.75
2023-05-14T03:27:26.386Z,1.75
2023-05-14T03:29:53.346Z,1.77
2023-05-14T03:32:20.245Z,1.85
2023-05-14T03:34:47.263Z,1.70
2023-05-14T03:37:14.231Z,1.73
2023-05-14T03:39:42.497Z,1.80
2023-05-14T03:42:09.358Z,1.88
2023-05-14T03:44:36.198Z,1.80
2023-05-14T03:47:03.188Z,1.60
2023-05-14T03:49:32.712Z,1.50
2023-05-14T03:51:59.581Z,1.48
2023-05-14T03:54:26.485Z,1.50
2023-05-14T03:56:54.719Z,1.60
2023-05-14T03:59:21.590Z,1.58
2023-05-14T04:01:48.447Z,1.70
2023-05-14T04:04:15.315Z,1.75
2023-05-14T04:06:42.202Z,1.75
2023-05-14T04:09:09.046Z,1.60
2023-05-14T04:11:35.918Z,1.42
2023-05-14T04:14:04.161Z,1.50
2023-05-14T04:16:31.129Z,1.50
2023-05-14T04:18:58.113Z,1.67
2023-05-14T04:21:25.021Z,1.60
2023-05-14T04:23:51.959Z,1.60
2023-05-14T04:26:18.830Z,1.50
2023-05-14T04:28:45.779Z,1.30
2023-05-14T04:31:15.040Z,1.65
2023-05-14T04:33:41.929Z,1.40
2023-05-14T04:36:09.052Z,1.50
2023-05-14T04:38:35.994Z,1.40
2023-05-14T04:41:02.851Z,1.45
2023-05-14T04:43:29.703Z,1.45
2023-05-14T04:45:56.745Z,1.73
2023-05-14T04:48:24.994Z,1.50
2023-05-14T04:50:51.883Z,1.42
2023-05-14T04:53:18.750Z,1.50
2023-05-14T04:55:45.651Z,1.48
2023-05-14T04:58:12.559Z,1.50
2023-05-14T05:00:39.427Z,1.83
2023-05-14T05:03:06.353Z,1.42
2023-05-14T05:05:34.712Z,1.70
2023-05-14T05:08:01.630Z,1.13
2023-05-14T05:10:28.457Z,1.75
2023-05-14T05:12:55.312Z,1.67
2023-05-14T05:15:22.894Z,1.70
2023-05-14T05:17:51.150Z,1.48
2023-05-14T05:20:18.144Z,1.85
2023-05-14T05:22:46.391Z,1.45
2023-05-14T05:25:13.330Z,1.60
2023-05-14T05:27:40.282Z,1.90
2023-05-14T05:30:08.762Z,1.42
2023-05-14T05:32:35.753Z,1.60
2023-05-14T05:35:02.920Z,1.45
2023-05-14T05:37:30.646Z,1.60
2023-05-14T05:39:58.915Z,1.70
2023-05-14T05:42:25.835Z,1.50
2023-05-14T05:44:52.710Z,1.55
2023-05-14T05:47:19.622Z,1.80
2023-05-14T05:49:46.514Z,1.48
2023-05-14T05:52:13.387Z,1.50
2023-05-14T05:54:40.221Z,1.90
2023-05-14T05:57:08.494Z,2.15
2023-05-14T05:59:35.321Z,1.88
2023-05-14T06:02:02.313Z,1.75
2023-05-14T06:04:29.252Z,1.73
2023-05-14T06:06:56.117Z,1.63
2023-05-14T06:09:22.991Z,1.45
2023-05-14T06:11:49.943Z,1.35
2023-05-14T06:14:18.262Z,1.58
2023-05-14T06:16:45.207Z,1.60
2023-05-14T06:19:12.246Z,1.30
2023-05-14T06:21:39.191Z,1.52
2023-05-14T06:24:06.779Z,1.45
2023-05-14T06:26:33.716Z,1.50
2023-05-14T06:29:00.673Z,1.40
2023-05-14T06:31:28.970Z,1.20
2023-05-14T06:33:55.853Z,1.25
2023-05-14T06:36:22.739Z,1.30
2023-05-14T06:38:49.585Z,1.20
2023-05-14T06:41:16.880Z,1.38
2023-05-14T06:43:43.885Z,1.30
2023-05-14T06:46:10.807Z,1.48
2023-05-14T06:48:39.174Z,1.52
2023-05-14T06:51:06.166Z,1.33
2023-05-14T06:53:33.006Z,1.40
2023-05-14T06:55:59.882Z,1.40
2023-05-14T06:58:26.791Z,1.27
2023-05-14T07:00:53.655Z,1.25
2023-05-14T07:03:20.565Z,1.50
2023-05-14T07:05:48.786Z,1.58
2023-05-14T07:08:15.645Z,1.45
2023-05-14T07:10:42.508Z,1.30
2023-05-14T07:13:09.359Z,1.42
2023-05-14T07:15:36.241Z,1.35
2023-05-14T07:18:03.246Z,1.05
2023-05-14T07:20:30.198Z,1.30
2023-05-14T07:22:58.443Z,1.52
2023-05-14T07:25:25.288Z,1.20
2023-05-14T07:27:52.195Z,1.30
2023-05-14T07:30:19.643Z,1.33
2023-05-14T07:32:46.563Z,1.40
2023-05-14T07:35:13.469Z,1.30
2023-05-14T07:37:40.345Z,1.10
2023-05-14T07:40:09.718Z,1.40
2023-05-14T07:42:37.523Z,1.40
2023-05-14T07:45:05.036Z,1.45
2023-05-14T07:47:32.089Z,0.95
2023-05-14T07:49:59.479Z,1.23
2023-05-14T07:52:26.449Z,1.23
2023-05-14T07:54:53.412Z,0.98
2023-05-14T07:57:21.710Z,1.10
2023-05-14T07:59:48.745Z,0.98
2023-05-14T08:02:15.743Z,1.02
2023-05-14T08:04:42.702Z,1.10
2023-05-14T08:07:09.592Z,1.10
2023-05-14T08:09:36.463Z,1.02
2023-05-14T08:12:03.622Z,1.15
2023-05-14T08:14:31.850Z,1.02
2023-05-14T08:16:58.809Z,1.23
2023-05-14T08:19:25.711Z,1.10
2023-05-14T08:21:52.579Z,1.05
2023-05-14T08:24:19.463Z,1.00
2023-05-14T08:26:46.319Z,1.13
2023-05-14T08:29:16.101Z,1.00
2023-05-14T08:31:44.907Z,0.95
2023-05-14T08:34:11.862Z,1.00
2023-05-14T08:36:38.855Z,1.08
2023-05-14T08:39:05.716Z,0.73
2023-05-14T08:41:32.594Z,1.00
2023-05-14T08:44:04.127Z,1.20
2023-05-14T08:46:30.992Z,1.00
2023-05-14T08:49:02.729Z,1.05
2023-05-14T08:51:29.614Z,0.80
2023-05-14T08:53:56.894Z,0.90
2023-05-14T08:56:23.730Z,1.10
2023-05-14T08:58:50.564Z,1.23
2023-05-14T09:01:18.192Z,1.00
2023-05-14T09:03:45.107Z,1.00
2023-05-14T09:06:13.387Z,1.17
2023-05-14T09:08:40.257Z,0.90
2023-05-14T09:11:07.104Z,0.80
2023-05-14T09:13:34.197Z,0.98
2023-05-14T09:16:01.102Z,1.10
2023-05-14T09:18:28.028Z,0.95
2023-05-14T09:20:54.918Z,0.70
2023-05-14T09:23:23.432Z,0.80
2023-05-14T09:25:50.292Z,1.00
2023-05-14T09:28:17.424Z,0.82
2023-05-14T09:30:47.576Z,0.77
2023-05-14T09:33:17.427Z,0.80
2023-05-14T09:35:44.314Z,0.95
2023-05-14T09:38:11.247Z,0.90
2023-05-14T09:40:39.472Z,0.60
2023-05-14T09:43:06.339Z,0.82
2023-05-14T09:45:33.336Z,0.90
2023-05-14T09:48:00.388Z,0.73
2023-05-14T09:50:27.341Z,0.60
2023-05-14T09:52:55.350Z,0.85
2023-05-14T09:55:22.312Z,0.52
2023-05-14T09:57:50.551Z,0.63
2023-05-14T10:00:17.972Z,0.60
2023-05-14T10:02:44.955Z,0.60
2023-05-14T10:05:11.914Z,0.82
2023-05-14T10:07:40.867Z,0.60
2023-05-14T10:10:08.688Z,0.50
2023-05-14T10:12:37.196Z,0.60
2023-05-14T10:15:09.369Z,0.50
2023-05-14T10:17:36.273Z,0.75
2023-05-14T10:20:03.377Z,0.70
2023-05-14T10:22:31.941Z,0.57
2023-05-14T10:24:58.882Z,0.50
2023-05-14T10:27:25.777Z,0.50
2023-05-14T10:29:53.159Z,0.60
2023-05-14T10:32:21.545Z,0.70
2023-05-14T10:34:48.432Z,0.50
2023-05-14T10:37:16.004Z,0.40
2023-05-14T10:39:47.225Z,0.38
2023-05-14T10:42:16.102Z,0.70
2023-05-14T10:44:49.398Z,0.50
2023-05-14T10:47:16.411Z,0.50
2023-05-14T10:49:45.751Z,0.50
2023-05-14T10:52:12.772Z,0.50
2023-05-14T10:54:39.858Z,0.60
2023-05-14T10:57:11.236Z,0.40
2023-05-14T10:59:40.839Z,0.80
2023-05-14T11:02:08.617Z,0.60
2023-05-14T11:04:35.522Z,0.40
2023-05-14T11:07:03.801Z,0.50
2023-05-14T11:09:30.682Z,0.60
2023-05-14T11:11:57.602Z,0.52
2023-05-14T11:14:24.494Z,0.50
2023-05-14T11:16:51.456Z,0.52
2023-05-14T11:19:18.437Z,0.77
2023-05-14T11:21:45.453Z,0.30
2023-05-14T11:24:13.729Z,0.40
2023-05-14T11:26:40.603Z,0.50
2023-05-14T11:29:07.482Z,0.65
2023-05-14T11:31:34.386Z,0.63
2023-05-14T11:34:01.248Z,0.43
2023-05-14T11:36:28.073Z,0.50
2023-05-14T11:38:55.283Z,0.40
2023-05-14T11:41:23.600Z,0.50
2023-05-14T11:43:50.520Z,0.55
2023-05-14T11:46:17.569Z,0.40
2023-05-14T11:48:44.604Z,0.47
2023-05-14T11:51:11.497Z,0.60
2023-05-14T11:53:38.470Z,0.60
2023-05-14T11:58:33.929Z,0.80
2023-05-14T12:01:00.844Z,0.50
2023-05-14T12:03:27.955Z,0.40
2023-05-14T12:05:55.976Z,0.50
2023-05-14T12:08:22.912Z,0.68
2023-05-14T12:10:49.917Z,0.40
2023-05-14T12:13:16.782Z,0.40
2023-05-14T12:15:46.552Z,0.40
2023-05-14T12:18:23.409Z,0.50
2023-05-14T12:20:51.833Z,0.50
2023-05-14T12:23:25.340Z,0.52
2023-05-14T12:25:52.230Z,0.38
2023-05-14T12:28:19.305Z,0.50
2023-05-14T12:30:47.563Z,0.40
2023-05-14T12:33:14.488Z,0.40
2023-05-14T12:35:41.737Z,0.60
2023-05-14T12:38:08.668Z,0.60
2023-05-14T12:40:35.575Z,0.70
2023-05-14T12:43:02.968Z,0.68
2023-05-14T12:45:30.574Z,0.50
2023-05-14T12:47:58.931Z,0.50
2023-05-14T12:50:26.341Z,0.60
2023-05-14T12:52:53.386Z,0.60
2023-05-14T12:55:20.458Z,0.60
2023-05-14T12:57:47.309Z,0.40
2023-05-14T13:00:15.038Z,0.80
2023-05-14T13:02:43.715Z,0.47
2023-05-14T13:05:12.517Z,0.60
2023-05-14T13:07:39.501Z,0.52
2023-05-14T13:10:07.231Z,0.80
2023-05-14T13:12:34.215Z,0.60
2023-05-14T13:15:01.145Z,0.50
2023-05-14T13:17:28.061Z,0.63
2023-05-14T13:19:54.978Z,0.60
2023-05-14T13:22:23.183Z,0.65
2023-05-14T13:24:50.118Z,0.60
2023-05-14T13:27:17.074Z,0.77
2023-05-14T13:29:43.966Z,0.60
2023-05-14T13:32:10.860Z,0.50
2023-05-14T13:34:37.728Z,0.60
2023-05-14T13:37:04.788Z,0.93
2023-05-14T13:39:33.019Z,0.90
2023-05-14T13:41:59.861Z,0.93
2023-05-14T13:44:26.746Z,0.65
2023-05-14T13:46:53.816Z,0.80
2023-05-14T13:49:20.783Z,1.10
2023-05-14T13:51:47.743Z,0.98
2023-05-14T13:54:14.598Z,1.02
2023-05-14T13:56:42.806Z,0.77
2023-05-14T13:59:09.664Z,1.00
2023-05-14T14:01:36.637Z,0.90
2023-05-14T14:04:03.616Z,1.08
2023-05-14T14:06:31.373Z,1.10
2023-05-14T14:08:58.260Z,1.10
2023-05-14T14:11:25.233Z,0.82
2023-05-14T14:13:53.485Z,0.93
2023-05-14T14:16:20.430Z,1.10
2023-05-14T14:18:47.342Z,0.95
2023-05-14T14:21:14.348Z,1.17
2023-05-14T14:23:41.329Z,0.98
2023-05-14T14:26:08.212Z,1.00
2023-05-14T14:28:35.108Z,1.17
2023-05-14T14:31:03.573Z,1.00
2023-05-14T14:33:30.421Z,1.00
2023-05-14T14:35:57.352Z,1.48
2023-05-14T14:38:24.728Z,0.88
2023-05-14T14:40:51.611Z,1.00
2023-05-14T14:43:18.475Z,0.90
2023-05-14T14:45:48.163Z,1.10
2023-05-14T14:48:27.554Z,1.27
2023-05-14T14:50:54.599Z,1.02
2023-05-14T14:53:21.612Z,1.20
2023-05-14T14:55:48.501Z,1.40
2023-05-14T14:58:15.388Z,1.13
2023-05-14T15:00:42.301Z,1.55
2023-05-14T15:03:09.322Z,1.00
2023-05-14T15:05:37.667Z,1.05
2023-05-14T15:08:05.099Z,1.15
2023-05-14T15:10:31.984Z,1.08
2023-05-14T15:12:58.997Z,1.08
2023-05-14T15:15:26.118Z,1.17
2023-05-14T15:17:53.151Z,1.17
2023-05-14T15:20:20.083Z,1.10
2023-05-14T15:22:48.333Z,1.30
2023-05-14T15:25:15.219Z,1.10
2023-05-14T15:27:42.134Z,1.52
2023-05-14T15:30:09.912Z,1.15
2023-05-14T15:32:36.858Z,1.25
2023-05-14T15:35:04.021Z,1.60
2023-05-14T15:37:31.906Z,1.35
2023-05-14T15:40:00.184Z,1.38
2023-05-14T15:42:27.045Z,1.67
2023-05-14T15:44:53.948Z,1.00
2023-05-14T15:47:20.847Z,0.98
2023-05-14T15:49:47.699Z,1.00
2023-05-14T15:52:14.590Z,1.20
2023-05-14T15:54:41.575Z,1.63
2023-05-14T15:57:09.861Z,1.42
2023-05-14T15:59:36.719Z,1.20
2023-05-14T16:02:03.770Z,1.27
2023-05-14T16:04:30.695Z,0.95
2023-05-14T16:07:01.706Z,1.20
2023-05-14T16:09:28.794Z,1.50
2023-05-14T16:11:55.719Z,1.40
2023-05-14T16:14:24.050Z,1.50
2023-05-14T16:16:51.021Z,1.30
2023-05-14T16:19:18.044Z,1.23
2023-05-14T16:21:44.978Z,1.02
2023-05-14T16:24:11.857Z,1.30
2023-05-14T16:26:38.931Z,1.30
2023-05-14T16:29:05.894Z,1.60
2023-05-14T16:31:34.170Z,1.33
2023-05-14T16:34:01.136Z,1.35
2023-05-14T16:36:28.042Z,1.17
2023-05-14T16:39:06.844Z,1.27
2023-05-14T16:41:34.856Z,1.67
2023-05-14T16:44:01.701Z,1.55
2023-05-14T16:46:28.847Z,1.48
2023-05-14T16:48:57.211Z,1.45
2023-05-14T16:51:24.189Z,0.98
2023-05-14T16:53:52.041Z,1.40
2023-05-14T16:56:19.136Z,1.10
2023-05-14T16:58:46.047Z,1.02
2023-05-14T17:01:12.997Z,1.10
2023-05-14T17:03:39.925Z,1.60
2023-05-14T17:06:08.586Z,1.20
2023-05-14T17:08:35.471Z,1.45
2023-05-14T17:11:02.316Z,1.42
2023-05-14T17:13:29.169Z,1.10
2023-05-14T17:15:56.077Z,1.17
2023-05-14T17:18:22.975Z,1.10
2023-05-14T17:20:49.840Z,1.00
2023-05-14T17:23:18.198Z,1.20
2023-05-14T17:25:45.062Z,1.10
2023-05-14T17:28:11.913Z,0.90
2023-05-14T17:30:38.797Z,1.05
2023-05-14T17:33:05.787Z,0.98
2023-05-14T17:35:32.679Z,1.13
2023-05-14T17:38:00.616Z,1.17
2023-05-14T17:40:29.037Z,1.00
2023-05-14T17:42:55.926Z,1.30
2023-05-14T17:45:23.103Z,1.10
2023-05-14T17:47:50.105Z,1.23
2023-05-14T17:50:17.187Z,1.20
2023-05-14T17:52:44.105Z,0.80
2023-05-14T17:55:11.019Z,1.30
2023-05-14T17:57:39.348Z,1.05
2023-05-14T18:00:07.662Z,1.15
2023-05-14T18:02:34.601Z,1.00
2023-05-14T18:05:01.538Z,1.20
2023-05-14T18:07:28.541Z,1.13
2023-05-14T18:09:55.477Z,1.25
2023-05-14T18:12:22.364Z,1.10
2023-05-14T18:14:50.645Z,1.20
2023-05-14T18:17:17.603Z,1.00
2023-05-14T18:19:44.468Z,1.27
2023-05-14T18:22:11.322Z,0.93
2023-05-14T18:24:38.206Z,1.10
2023-05-14T18:27:05.358Z,1.00
2023-05-14T18:29:32.246Z,1.20
2023-05-14T18:32:00.512Z,0.82
2023-05-14T18:34:27.459Z,0.98
2023-05-14T18:36:54.374Z,1.13
2023-05-14T18:39:21.275Z,1.38
2023-05-14T18:41:48.157Z,1.20
2023-05-14T18:44:15.113Z,0.90
2023-05-14T18:46:42.057Z,1.13
2023-05-14T18:49:10.360Z,1.13
2023-05-14T18:51:37.229Z,0.77
2023-05-14T18:54:04.304Z,0.82
2023-05-14T18:56:31.164Z,1.00
2023-05-14T18:58:58.075Z,1.13
2023-05-14T19:01:25.142Z,1.00
2023-05-14T19:03:52.871Z,1.38
2023-05-14T19:06:21.439Z,1.00
2023-05-14T19:08:48.314Z,1.27
2023-05-14T19:11:15.137Z,1.00
2023-05-14T19:13:41.972Z,1.00
2023-05-14T19:16:08.918Z,0.90
2023-05-14T19:18:35.806Z,1.30
2023-05-14T19:21:02.719Z,1.40
2023-05-14T19:23:30.929Z,1.55
2023-05-14T19:25:57.788Z,1.38
2023-05-14T19:28:24.654Z,1.60
2023-05-14T19:30:51.492Z,1.27
2023-05-14T19:33:18.358Z,1.23
2023-05-14T19:35:45.233Z,1.05
2023-05-14T19:38:12.103Z,1.08
2023-05-14T19:40:40.447Z,1.27
2023-05-14T19:43:07.435Z,1.02
2023-05-14T19:45:34.315Z,0.90
2023-05-14T19:48:01.252Z,1.00
2023-05-14T19:50:28.147Z,0.90
2023-05-14T19:52:55.081Z,1.10
2023-05-14T19:55:21.964Z,0.98
2023-05-14T19:57:50.242Z,0.93
2023-05-14T20:00:17.619Z,1.00
2023-05-14T20:02:44.643Z,1.20
2023-05-14T20:05:11.635Z,1.00
2023-05-14T20:07:40.262Z,1.10
2023-05-14T20:10:08.416Z,1.00
2023-05-14T20:12:36.642Z,1.10
2023-05-14T20:15:05.843Z,1.02
2023-05-14T20:17:32.799Z,0.90
2023-05-14T20:19:59.702Z,1.05
2023-05-14T20:22:26.633Z,0.85
2023-05-14T20:24:53.505Z,1.00
2023-05-14T20:27:20.434Z,1.05
2023-05-14T20:29:47.298Z,0.90
2023-05-14T20:32:15.560Z,1.17
2023-05-14T20:34:42.491Z,1.15
2023-05-14T20:37:09.461Z,0.88
2023-05-14T20:39:36.409Z,0.80
2023-05-14T20:42:03.541Z,1.05
2023-05-14T20:44:30.414Z,1.00
2023-05-14T20:46:57.266Z,0.93
2023-05-14T20:49:25.529Z,1.10
2023-05-14T20:51:52.418Z,1.48
2023-05-14T20:54:19.271Z,1.20
2023-05-14T20:56:46.159Z,0.90
2023-05-14T20:59:13.020Z,0.98
2023-05-14T21:01:40.066Z,1.20
2023-05-14T21:04:07.204Z,1.50
2023-05-14T21:06:35.600Z,0.90
2023-05-14T21:09:02.485Z,1.10
2023-05-14T21:11:29.352Z,1.55
2023-05-14T21:13:56.199Z,1.13
2023-05-14T21:16:23.331Z,1.20
2023-05-14T21:18:50.289Z,1.42
2023-05-14T21:21:17.189Z,1.58
2023-05-14T21:23:45.748Z,1.15
2023-05-14T21:26:12.654Z,1.25
2023-05-14T21:28:39.667Z,1.40
2023-05-14T21:31:06.574Z,1.05
2023-05-14T21:33:33.445Z,1.30
2023-05-14T21:36:00.320Z,1.10
2023-05-14T21:38:27.250Z,0.90
2023-05-14T21:40:55.504Z,1.30
2023-05-14T21:43:22.386Z,1.50
2023-05-14T21:45:49.258Z,1.27
2023-05-14T21:48:16.230Z,1.13
2023-05-14T21:50:43.096Z,1.10
2023-05-14T21:53:09.955Z,1.27
2023-05-14T21:55:36.972Z,0.82
2023-05-14T21:58:05.895Z,1.42
2023-05-14T22:00:32.761Z,0.82
2023-05-14T22:02:59.756Z,1.02
2023-05-14T22:05:26.982Z,1.10
2023-05-14T22:07:54.214Z,1.20
2023-05-14T22:10:21.077Z,1.10
2023-05-14T22:12:47.973Z,1.20
2023-05-14T22:15:16.181Z,1.10
2023-05-14T22:17:43.081Z,1.20
2023-05-14T22:20:10.443Z,1.00
2023-05-14T22:22:37.358Z,1.02
2023-05-14T22:25:04.747Z,1.20
2023-05-14T22:27:31.757Z,1.10
2023-05-14T22:29:58.746Z,1.05
2023-05-14T22:32:27.231Z,1.00
2023-05-14T22:34:54.128Z,1.27
2023-05-14T22:37:20.973Z,1.30
2023-05-14T22:39:47.831Z,1.00
2023-05-14T22:42:14.686Z,1.15
2023-05-14T22:44:41.518Z,0.95
2023-05-14T22:47:08.390Z,1.20
2023-05-14T22:49:36.694Z,1.33
2023-05-14T22:52:03.902Z,1.02
2023-05-14T22:54:30.751Z,1.27
2023-05-14T22:56:57.601Z,1.00
2023-05-14T22:59:24.550Z,1.30
2023-05-14T23:01:51.656Z,1.33
2023-05-14T23:04:18.626Z,1.30
2023-05-14T23:06:46.956Z,1.20
2023-05-14T23:09:13.801Z,1.25
2023-05-14T23:11:40.662Z,1.00
2023-05-14T23:14:07.545Z,1.20
2023-05-14T23:16:34.399Z,0.95
2023-05-14T23:19:01.456Z,1.23
2023-05-14T23:21:28.451Z,1.15
2023-05-14T23:23:56.687Z,1.08
2023-05-14T23:26:23.572Z,1.15
2023-05-14T23:28:50.456Z,1.13
2023-05-14T23:31:17.373Z,1.02
2023-05-14T23:33:44.275Z,1.30
2023-05-14T23:36:11.136Z,1.45
2023-05-14T23:38:38.019Z,1.83
2023-05-14T23:41:06.274Z,1.33
2023-05-14T23:43:33.147Z,1.30
2023-05-14T23:46:00.217Z,1.30
2023-05-14T23:48:27.128Z,1.00
2023-05-14T23:50:54.042Z,1.05
2023-05-14T23:53:20.928Z,1.10
2023-05-14T23:55:47.795Z,1.00
2023-05-14T23:58:16.005Z,1.08
